createdAt,value
2022-11-25T00:04:58.750Z,10
2022-11-25T00:09:58.748Z,10
2022-11-25T00:14:58.653Z,10
2022-11-25T00:19:58.664Z,10
2022-11-25T00:24:58.711Z,10
2022-11-25T00:29:59.054Z,10
2022-11-25T00:34:58.569Z,10
2022-11-25T00:39:58.822Z,10
2022-11-25T00:44:58.736Z,11
2022-11-25T00:49:58.546Z,11
2022-11-25T00:54:58.656Z,11
2022-11-25T00:59:58.657Z,10
2022-11-25T01:04:58.574Z,10
2022-11-25T01:09:58.792Z,10
2022-11-25T01:14:58.670Z,10
2022-11-25T01:19:58.807Z,10
2022-11-25T01:24:58.621Z,10
2022-11-25T01:29:58.817Z,10
2022-11-25T01:34:58.506Z,10
2022-11-25T01:39:58.664Z,10
2022-11-25T01:44:58.617Z,10
2022-11-25T01:49:58.698Z,11
2022-11-25T01:55:01.114Z,11
2022-11-25T01:59:58.657Z,11
2022-11-25T02:04:58.492Z,11
2022-11-25T02:09:58.669Z,11
2022-11-25T02:14:58.475Z,11
2022-11-25T02:19:58.490Z,11
2022-11-25T02:24:58.667Z,12
2022-11-25T02:29:58.714Z,12
2022-11-25T02:34:58.412Z,11
2022-11-25T02:39:58.705Z,12
2022-11-25T02:44:58.445Z,11
2022-11-25T02:49:58.419Z,11
2022-11-25T02:54:58.557Z,11
2022-11-25T02:59:58.605Z,12
2022-11-25T03:04:58.654Z,12
2022-11-25T03:09:58.713Z,12
2022-11-25T03:14:58.440Z,12
2022-11-25T03:19:58.431Z,12
2022-11-25T03:24:58.714Z,12
2022-11-25T03:29:58.598Z,12
2022-11-25T03:34:58.599Z,12
2022-11-25T03:39:58.605Z,12
2022-11-25T03:44:58.556Z,11
2022-11-25T03:49:58.520Z,11
2022-11-25T03:54:58.653Z,11
2022-11-25T03:59:58.708Z,11
2022-11-25T04:04:58.510Z,10
2022-11-25T04:09:58.346Z,10
2022-11-25T04:14:58.507Z,10
2022-11-25T04:19:58.632Z,10
2022-11-25T04:24:58.306Z,10
2022-11-25T04:29:58.343Z,10
2022-11-25T04:34:58.320Z,10
2022-11-25T04:39:58.677Z,9
2022-11-25T04:45:21.365Z,9
2022-11-25T04:49:58.566Z,9
2022-11-25T04:54:58.594Z,9
2022-11-25T04:59:58.363Z,9
2022-11-25T05:04:58.337Z,9
2022-11-25T05:09:58.478Z,9
2022-11-25T05:14:58.515Z,9
2022-11-25T05:19:58.288Z,9
2022-11-25T05:24:58.310Z,9
2022-11-25T05:29:58.567Z,8
2022-11-25T05:34:58.202Z,8
2022-11-25T05:39:58.339Z,8
2022-11-25T05:44:58.307Z,8
2022-11-25T05:49:58.483Z,8
2022-11-25T05:54:58.766Z,8
2022-11-25T05:59:58.313Z,9
2022-11-25T06:04:58.457Z,9
2022-11-25T06:10:02.867Z,9
2022-11-25T06:14:58.661Z,9
2022-11-25T06:19:58.218Z,9
2022-11-25T06:25:03.271Z,9
2022-11-25T06:29:58.306Z,9
2022-11-25T06:34:58.408Z,9
2022-11-25T06:39:58.524Z,10
2022-11-25T06:44:58.458Z,10
2022-11-25T06:49:58.595Z,11
2022-11-25T06:54:58.270Z,11
2022-11-25T06:59:58.340Z,11
2022-11-25T07:04:58.527Z,12
2022-11-25T07:09:58.234Z,12
2022-11-25T07:14:58.171Z,13
2022-11-25T07:19:58.285Z,13
2022-11-25T07:24:58.133Z,13
2022-11-25T07:30:29.593Z,13
2022-11-25T07:34:58.163Z,14
2022-11-25T07:39:58.349Z,14
2022-11-25T07:44:58.406Z,14
2022-11-25T07:49:58.186Z,14
2022-11-25T07:54:58.235Z,14
2022-11-25T07:59:58.239Z,15
2022-11-25T08:04:58.134Z,15
2022-11-25T08:09:58.197Z,15
2022-11-25T08:14:58.336Z,16
2022-11-25T08:19:58.284Z,15
2022-11-25T08:24:58.210Z,16
2022-11-25T08:29:58.128Z,16
2022-11-25T08:34:58.465Z,16
2022-11-25T08:39:58.370Z,16
2022-11-25T08:44:58.086Z,16
2022-11-25T08:49:58.485Z,16
2022-11-25T08:54:58.136Z,16
2022-11-25T08:59:58.371Z,16
2022-11-25T09:04:58.142Z,15
2022-11-25T09:09:58.209Z,15
2022-11-25T09:14:58.024Z,15
2022-11-25T09:19:58.086Z,15
2022-11-25T09:24:58.304Z,15
2022-11-25T09:29:58.184Z,15
2022-11-25T09:34:58.078Z,15
2022-11-25T09:39:58.345Z,15
2022-11-25T09:44:58.265Z,15
2022-11-25T09:49:58.098Z,14
2022-11-25T09:55:02.234Z,14
2022-11-25T10:00:01.372Z,13
2022-11-25T10:04:58.273Z,13
2022-11-25T10:09:59.043Z,13
2022-11-25T10:14:59.504Z,13
2022-11-25T10:19:58.042Z,13
2022-11-25T10:25:01.842Z,13
2022-11-25T10:30:01.290Z,12
2022-11-25T10:34:58.157Z,12
2022-11-25T10:39:58.287Z,12
2022-11-25T10:44:58.163Z,12
2022-11-25T10:49:57.955Z,12
2022-11-25T10:55:07.797Z,12
2022-11-25T10:59:58.258Z,12
2022-11-25T11:04:58.198Z,12
2022-11-25T11:09:58.023Z,12
2022-11-25T11:14:57.979Z,12
2022-11-25T11:19:57.967Z,11
2022-11-25T11:24:58.155Z,11
2022-11-25T11:29:58.057Z,11
2022-11-25T11:35:02.364Z,11
2022-11-25T11:39:57.870Z,11
2022-11-25T11:44:57.951Z,11
2022-11-25T11:50:03.644Z,10
2022-11-25T11:54:58.152Z,10
2022-11-25T11:59:58.243Z,10
2022-11-25T12:04:57.876Z,10
2022-11-25T12:09:58.094Z,9
2022-11-25T12:15:01.704Z,9
2022-11-25T12:19:58.122Z,9
2022-11-25T12:24:57.955Z,9
2022-11-25T12:30:01.027Z,9
2022-11-25T12:35:00.670Z,9
2022-11-25T12:39:57.986Z,9
2022-11-25T12:45:00.999Z,9
2022-11-25T12:49:58.158Z,9
2022-11-25T12:54:58.208Z,9
2022-11-25T13:00:25.107Z,9
2022-11-25T13:05:07.598Z,9
2022-11-25T13:09:57.934Z,9
2022-11-25T13:15:12.289Z,9
2022-11-25T13:19:57.929Z,9
2022-11-25T13:24:57.842Z,9
2022-11-25T13:29:57.804Z,9
2022-11-25T13:34:57.813Z,9
2022-11-25T13:39:57.788Z,9
2022-11-25T13:44:58.078Z,9
2022-11-25T13:49:57.966Z,9
2022-11-25T13:54:57.780Z,9
2022-11-25T13:59:59.136Z,9
2022-11-25T14:05:01.641Z,9
2022-11-25T14:09:57.886Z,10
2022-11-25T14:14:57.936Z,10
2022-11-25T14:20:02.601Z,10
2022-11-25T14:25:13.368Z,10
2022-11-25T14:29:57.946Z,10
2022-11-25T14:34:57.791Z,9
2022-11-25T14:39:57.841Z,10
2022-11-25T14:44:57.720Z,10
2022-11-25T14:54:57.895Z,10
2022-11-25T14:59:57.946Z,10
2022-11-25T15:05:02.381Z,10
2022-11-25T15:09:57.741Z,10
2022-11-25T15:14:57.723Z,10
2022-11-25T15:20:00.399Z,10
2022-11-25T15:24:57.767Z,10
2022-11-25T15:29:58.227Z,10
2022-11-25T15:34:57.892Z,10
2022-11-25T15:40:30.155Z,10
2022-11-25T15:44:57.751Z,10
2022-11-25T15:49:57.962Z,11
2022-11-25T15:54:57.635Z,11
2022-11-25T15:59:57.780Z,11
2022-11-25T16:05:03.272Z,11
2022-11-25T16:09:57.778Z,12
2022-11-25T16:14:57.793Z,12
2022-11-25T16:19:57.991Z,12
2022-11-25T16:25:02.348Z,12
2022-11-25T16:29:57.973Z,12
2022-11-25T16:35:01.485Z,13
2022-11-25T16:39:57.964Z,12
2022-11-25T16:44:59.382Z,13
2022-11-25T16:49:58.157Z,12
2022-11-25T16:54:57.617Z,12
2022-11-25T16:59:58.906Z,12
2022-11-25T17:04:58.594Z,13
2022-11-25T17:09:57.825Z,13
2022-11-25T17:14:57.765Z,14
2022-11-25T17:19:57.602Z,14
2022-11-25T17:24:57.736Z,15
2022-11-25T17:29:57.699Z,15
2022-11-25T17:34:57.691Z,15
2022-11-25T17:39:57.787Z,15
2022-11-25T17:44:57.750Z,15
2022-11-25T17:49:58.277Z,14
2022-11-25T17:54:57.857Z,14
2022-11-25T17:59:58.136Z,15
2022-11-25T18:04:57.984Z,16
2022-11-25T18:09:57.557Z,19
2022-11-25T18:14:57.698Z,20
2022-11-25T18:19:57.554Z,20
2022-11-25T18:24:57.554Z,21
2022-11-25T18:29:57.708Z,21
2022-11-25T18:34:57.631Z,21
2022-11-25T18:39:57.691Z,21
2022-11-25T18:44:57.705Z,20
2022-11-25T18:49:57.781Z,20
2022-11-25T18:54:57.626Z,21
2022-11-25T19:00:17.265Z,21
2022-11-25T19:04:57.718Z,21
2022-11-25T19:09:57.721Z,21
2022-11-25T19:14:57.601Z,21
2022-11-25T19:19:57.510Z,21
2022-11-25T19:24:57.767Z,21
2022-11-25T19:29:57.762Z,22
2022-11-25T19:34:57.669Z,22
2022-11-25T19:39:57.464Z,22
2022-11-25T19:44:57.493Z,22
2022-11-25T19:49:59.062Z,22
2022-11-25T19:54:57.607Z,22
2022-11-25T19:59:57.636Z,22
2022-11-25T20:04:57.472Z,22
2022-11-25T20:09:57.642Z,22
2022-11-25T20:14:57.698Z,22
2022-11-25T20:20:01.059Z,23
2022-11-25T20:24:57.443Z,25
2022-11-25T20:29:57.770Z,25
2022-11-25T20:34:57.408Z,26
2022-11-25T20:39:57.376Z,26
2022-11-25T20:44:58.031Z,25
2022-11-25T20:49:57.588Z,26
2022-11-25T20:54:58.483Z,26
2022-11-25T20:59:57.626Z,25
2022-11-25T21:04:57.634Z,25
2022-11-25T21:09:57.431Z,24
2022-11-25T21:14:57.848Z,24
2022-11-25T21:19:57.547Z,25
2022-11-25T21:24:57.905Z,25
2022-11-25T21:29:57.453Z,24
2022-11-25T21:34:57.602Z,24
2022-11-25T21:39:57.574Z,24
2022-11-25T21:44:57.943Z,23
2022-11-25T21:49:57.528Z,23
2022-11-25T21:54:57.335Z,23
2022-11-25T21:59:57.464Z,23
2022-11-25T22:04:57.589Z,22
2022-11-25T22:09:57.399Z,22
2022-11-25T22:14:57.558Z,22
2022-11-25T22:19:57.568Z,22
2022-11-25T22:24:57.389Z,22
2022-11-25T22:29:57.574Z,21
2022-11-25T22:34:57.326Z,21
2022-11-25T22:39:57.275Z,22
2022-11-25T22:44:57.591Z,22
2022-11-25T22:49:57.350Z,21
2022-11-25T22:54:57.360Z,21
2022-11-25T22:59:57.761Z,21
2022-11-25T23:04:57.509Z,21
2022-11-25T23:09:57.516Z,21
2022-11-25T23:14:57.440Z,21
2022-11-25T23:19:57.594Z,21
2022-11-25T23:24:57.287Z,20
2022-11-25T23:29:57.966Z,20
2022-11-25T23:34:57.518Z,20
2022-11-25T23:39:57.315Z,20
2022-11-25T23:44:57.289Z,20
2022-11-25T23:49:57.485Z,19
2022-11-25T23:54:57.185Z,19
2022-11-25T23:59:57.477Z,19
